Time;durP1;ratioP1;P1;durP2;ratioP2;P2;SDS_P1;SDS_P2;PMS_P1;PMS_P2;Temp;Humidity;BMP_temperature;BMP_pressure;BME280_temperature;BME280_humidity;BME280_pressure;Samples;Min_cycle;Max_cycle;Signal;HPM_P1;HPM_P2
2022/09/07 00:00:49;;;;;;;1.95;0.95;;;;;;;;;;4990413;28;20455;-61
2022/09/07 00:03:14;;;;;;;;;;;;;;;;;;4990792;28;20474;-62
2022/09/07 00:05:44;;;;;;;6.20;2.00;;;;;;;;;;4990575;28;20389;-62
2022/09/07 00:08:10;;;;;;;3.33;1.55;;;;;;;;;;4990403;28;20424;-62
2022/09/07 00:10:36;;;;;;;4.25;1.35;;;;;;;;;;4990295;28;20452;-61
2022/09/07 00:13:01;;;;;;;3.80;1.30;;;;;;;;;;4992280;28;20407;-61
2022/09/07 00:15:26;;;;;;;2.40;0.93;;;;;;;;;;4990508;28;20436;-63
2022/09/07 00:17:52;;;;;;;1.23;0.80;;;;;;;;;;4990771;28;20417;-61
2022/09/07 00:20:17;;;;;;;3.40;1.20;;;;;;;;;;4990157;28;20811;-62
2022/09/07 00:22:42;;;;;;;4.95;1.10;;;;;;;;;;4989985;28;20032;-61
2022/09/07 00:25:08;;;;;;;8.38;1.20;;;;;;;;;;4991809;28;20396;-62
2022/09/07 00:27:33;;;;;;;1.65;0.82;;;;;;;;;;4991927;28;20051;-62
2022/09/07 00:29:59;;;;;;;5.72;1.20;;;;;;;;;;4989761;28;20372;-62
2022/09/07 00:32:24;;;;;;;8.85;2.17;;;;;;;;;;4990128;28;20459;-61
2022/09/07 00:34:50;;;;;;;2.83;1.33;;;;;;;;;;4990311;28;20061;-61
2022/09/07 00:37:15;;;;;;;2.72;1.38;;;;;;;;;;4975374;28;20535;-61
2022/09/07 00:39:41;;;;;;;2.35;1.20;;;;;;;;;;4989931;28;20360;-61
2022/09/07 00:42:06;;;;;;;2.47;1.25;;;;;;;;;;4989758;28;20084;-61
2022/09/07 00:44:58;;;;;;;2.05;1.05;;;;;;;;;;4990257;28;20029;-62
2022/09/07 00:47:24;;;;;;;1.73;1.02;;;;;;;;;;4989546;28;20451;-62
2022/09/07 00:49:53;;;;;;;1.48;1.02;;;;;;;;;;4990281;28;20435;-61
2022/09/07 00:52:19;;;;;;;3.05;1.20;;;;;;;;;;4971767;28;20514;-62
2022/09/07 00:54:48;;;;;;;2.15;1.20;;;;;;;;;;4971865;28;20419;-61
2022/09/07 00:57:13;;;;;;;;;;;;;;;;;;4968195;28;20487;-61
2022/09/07 00:59:43;;;;;;;3.03;1.10;;;;;;;;;;4968090;28;20328;-62
2022/09/07 01:02:10;;;;;;;2.80;1.17;;;;;;;;;;4968060;28;20506;-62
2022/09/07 01:04:37;;;;;;;3.85;0.80;;;;;;;;;;4953062;28;20438;-61
2022/09/07 01:07:04;;;;;;;5.55;1.33;;;;;;;;;;4968745;28;20344;-62
2022/09/07 01:09:29;;;;;;;7.00;1.13;;;;;;;;;;4969947;28;20330;-62
2022/09/07 01:11:58;;;;;;;3.25;1.50;;;;;;;;;;4970067;28;20366;-61
2022/09/07 01:14:31;;;;;;;4.45;1.33;;;;;;;;;;4951359;28;20440;-62
2022/09/07 01:17:27;;;;;;;4.75;1.10;;;;;;;;;;4953026;28;20450;-62
2022/09/07 01:20:23;;;;;;;3.03;1.40;;;;;;;;;;4951588;28;20332;-61
2022/09/07 01:23:15;;;;;;;3.00;1.40;;;;;;;;;;4969415;28;20351;-62
2022/09/07 01:25:54;;;;;;;2.72;1.38;;;;;;;;;;4951326;28;20033;-61
2022/09/07 01:28:22;;;;;;;2.35;1.20;;;;;;;;;;4969410;28;20426;-61
2022/09/07 01:30:56;;;;;;;3.40;1.38;;;;;;;;;;4969247;28;20355;-61
2022/09/07 01:33:23;;;;;;;4.03;1.10;;;;;;;;;;4968919;28;20429;-62
2022/09/07 01:35:55;;;;;;;3.72;1.13;;;;;;;;;;4969057;28;20587;-61
2022/09/07 01:38:37;;;;;;;2.17;1.20;;;;;;;;;;4968849;28;20122;-61
2022/09/07 01:41:16;;;;;;;2.40;1.40;;;;;;;;;;4952397;28;20336;-63
2022/09/07 01:44:04;;;;;;;4.32;1.60;;;;;;;;;;4969059;28;20456;-62
2022/09/07 01:46:51;;;;;;;6.22;1.33;;;;;;;;;;4951093;28;20467;-61
2022/09/07 01:49:21;;;;;;;3.42;1.60;;;;;;;;;;4951929;28;20435;-61
2022/09/07 01:51:50;;;;;;;2.45;1.52;;;;;;;;;;4950916;28;20440;-61
2022/09/07 01:54:34;;;;;;;2.80;1.13;;;;;;;;;;4951139;28;20345;-61
2022/09/07 01:57:08;;;;;;;2.60;1.27;;;;;;;;;;4968881;28;20379;-61
2022/09/07 01:59:41;;;;;;;2.70;1.23;;;;;;;;;;4950788;28;20449;-61
2022/09/07 02:02:11;;;;;;;2.33;1.40;;;;;;;;;;4970493;28;20052;-62
2022/09/07 02:04:44;;;;;;;2.95;1.17;;;;;;;;;;4950850;28;20429;-61
2022/09/07 02:07:15;;;;;;;3.95;1.83;;;;;;;;;;4968387;28;20087;-61
2022/09/07 02:09:48;;;;;;;2.80;1.38;;;;;;;;;;4951678;28;20339;-61
2022/09/07 02:12:18;;;;;;;3.42;1.67;;;;;;;;;;4950432;28;20387;-61
2022/09/07 02:14:47;;;;;;;3.15;1.30;;;;;;;;;;4968345;28;20325;-61
2022/09/07 02:17:32;;;;;;;3.08;1.42;;;;;;;;;;4950465;28;20025;-61
2022/09/07 02:20:05;;;;;;;3.15;1.70;;;;;;;;;;4970004;28;20445;-61
2022/09/07 02:22:33;;;;;;;4.20;1.73;;;;;;;;;;4950742;28;20348;-61
2022/09/07 02:25:00;;;;;;;3.70;1.95;;;;;;;;;;4970016;28;20507;-61
2022/09/07 02:27:32;;;;;;;4.10;1.85;;;;;;;;;;4950670;28;20411;-62
2022/09/07 02:29:58;;;;;;;4.88;2.05;;;;;;;;;;4950360;28;20033;-61
2022/09/07 02:32:23;;;;;;;8.30;2.30;;;;;;;;;;4950131;28;20456;-61
2022/09/07 02:34:49;;;;;;;4.05;1.85;;;;;;;;;;4950445;28;20030;-61
2022/09/07 02:37:15;;;;;;;4.68;2.10;;;;;;;;;;4968715;28;20421;-62
2022/09/07 02:39:40;;;;;;;4.25;1.65;;;;;;;;;;4967926;28;20340;-62
2022/09/07 02:42:06;;;;;;;6.20;2.22;;;;;;;;;;4968282;28;20340;-61
2022/09/07 02:44:35;;;;;;;4.75;2.10;;;;;;;;;;4968095;28;20380;-61
2022/09/07 02:47:32;;;;;;;3.50;1.80;;;;;;;;;;4951167;28;20069;-61
2022/09/07 02:49:58;;;;;;;3.55;2.00;;;;;;;;;;4881213;28;20415;-61
2022/09/07 02:52:54;;;;;;;3.38;1.75;;;;;;;;;;4968600;28;20411;-61
2022/09/07 02:55:28;;;;;;;3.67;1.98;;;;;;;;;;4968134;28;20441;-61
2022/09/07 02:58:00;;;;;;;3.30;1.65;;;;;;;;;;4967550;28;20462;-61
2022/09/07 03:00:33;;;;;;;8.30;2.00;;;;;;;;;;4950829;28;20460;-62
2022/09/07 03:03:21;;;;;;;6.18;2.13;;;;;;;;;;4951204;28;20448;-62
2022/09/07 03:06:12;;;;;;;4.00;1.67;;;;;;;;;;4949870;28;20336;-61
2022/09/07 03:08:46;;;;;;;3.65;1.95;;;;;;;;;;4950868;28;20365;-61
2022/09/07 03:11:12;;;;;;;4.60;2.00;;;;;;;;;;4949989;28;20460;-62
2022/09/07 03:13:38;;;;;;;4.15;1.80;;;;;;;;;;4949997;28;20510;-61
2022/09/07 03:16:03;;;;;;;6.38;2.20;;;;;;;;;;4967783;28;20436;-62
2022/09/07 03:18:28;;;;;;;3.65;1.73;;;;;;;;;;4968163;28;20392;-62
2022/09/07 03:20:54;;;;;;;7.10;1.85;;;;;;;;;;4970015;28;20320;-61
2022/09/07 03:23:20;;;;;;;5.10;2.03;;;;;;;;;;4968897;28;20464;-61
2022/09/07 03:25:48;;;;;;;4.10;1.60;;;;;;;;;;4968772;28;20368;-61
2022/09/07 03:28:14;;;;;;;6.38;2.08;;;;;;;;;;4967790;28;20440;-62
2022/09/07 03:30:42;;;;;;;2.90;1.48;;;;;;;;;;4970425;28;20440;-62
2022/09/07 03:33:08;;;;;;;5.40;2.03;;;;;;;;;;4971393;28;20397;-62
2022/09/07 03:35:34;;;;;;;3.28;1.88;;;;;;;;;;4972884;28;20451;-62
2022/09/07 03:38:00;;;;;;;3.38;1.67;;;;;;;;;;4972499;28;20026;-61
2022/09/07 03:40:26;;;;;;;3.65;2.20;;;;;;;;;;4972141;28;20502;-61
2022/09/07 03:42:51;;;;;;;4.47;2.10;;;;;;;;;;4971141;28;20452;-62
2022/09/07 03:45:17;;;;;;;4.10;2.65;;;;;;;;;;4970846;28;20380;-61
2022/09/07 03:47:43;;;;;;;4.75;2.00;;;;;;;;;;4971445;28;20460;-62
2022/09/07 03:50:08;;;;;;;4.03;2.25;;;;;;;;;;4971230;28;20462;-62
2022/09/07 03:52:34;;;;;;;6.88;2.05;;;;;;;;;;4970902;28;20460;-62
2022/09/07 03:54:59;;;;;;;5.90;2.00;;;;;;;;;;4971873;28;20030;-61
2022/09/07 03:57:25;;;;;;;3.90;2.03;;;;;;;;;;4970658;28;20570;-61
2022/09/07 03:59:50;;;;;;;13.18;3.38;;;;;;;;;;4971002;28;20550;-61
2022/09/07 04:02:16;;;;;;;4.05;2.78;;;;;;;;;;4970698;28;20455;-62
2022/09/07 04:04:42;;;;;;;3.53;1.80;;;;;;;;;;4973040;28;20384;-61
2022/09/07 04:07:07;;;;;;;5.88;2.15;;;;;;;;;;4971179;28;20391;-61
2022/09/07 04:09:33;;;;;;;7.35;2.25;;;;;;;;;;4970363;28;20025;-61
2022/09/07 04:11:58;;;;;;;4.88;2.40;;;;;;;;;;4971253;28;20395;-61
2022/09/07 04:14:24;;;;;;;5.82;2.10;;;;;;;;;;4971185;28;20479;-62
2022/09/07 04:16:49;;;;;;;4.43;2.13;;;;;;;;;;4970216;28;20345;-61
2022/09/07 04:19:15;;;;;;;6.13;2.20;;;;;;;;;;4970656;28;20388;-61
2022/09/07 04:21:45;;;;;;;7.78;2.28;;;;;;;;;;4970503;28;20033;-61
2022/09/07 04:24:12;;;;;;;5.40;2.20;;;;;;;;;;4970300;28;20029;-61
2022/09/07 04:26:37;;;;;;;5.43;2.10;;;;;;;;;;4953070;28;20041;-61
2022/09/07 04:29:04;;;;;;;5.85;2.40;;;;;;;;;;4970281;28;20460;-62
2022/09/07 04:31:29;;;;;;;6.10;2.28;;;;;;;;;;4970486;28;20460;-61
2022/09/07 04:33:55;;;;;;;5.15;2.17;;;;;;;;;;4952482;28;20391;-62
2022/09/07 04:36:21;;;;;;;6.50;2.15;;;;;;;;;;4970083;28;20348;-61
2022/09/07 04:38:52;;;;;;;4.47;2.10;;;;;;;;;;4952516;28;20452;-61
2022/09/07 04:41:18;;;;;;;8.30;2.58;;;;;;;;;;4969007;28;20499;-61
2022/09/07 04:43:45;;;;;;;6.97;2.45;;;;;;;;;;4970558;28;20453;-61
2022/09/07 04:46:22;;;;;;;4.68;2.22;;;;;;;;;;4970948;28;20453;-61
2022/09/07 04:48:50;;;;;;;8.10;3.17;;;;;;;;;;4969794;28;20413;-61
2022/09/07 04:51:17;;;;;;;5.68;2.42;;;;;;;;;;4969877;28;20465;-62
2022/09/07 04:53:42;;;;;;;5.72;2.38;;;;;;;;;;4970649;28;20464;-61
2022/09/07 04:56:07;;;;;;;3.75;2.13;;;;;;;;;;4969581;28;20452;-62
2022/09/07 04:58:33;;;;;;;8.07;2.80;;;;;;;;;;4984768;28;20049;-62
2022/09/07 05:01:03;;;;;;;13.15;5.05;;;;;;;;;;4989930;28;20374;-61
2022/09/07 05:03:30;;;;;;;7.10;2.72;;;;;;;;;;4989267;28;20383;-62
2022/09/07 05:05:55;;;;;;;5.75;2.03;;;;;;;;;;4989581;28;20419;-61
2022/09/07 05:08:20;;;;;;;7.38;2.28;;;;;;;;;;4989008;28;20426;-61
2022/09/07 05:10:52;;;;;;;5.88;2.58;;;;;;;;;;4989107;28;20494;-62
2022/09/07 05:13:18;;;;;;;7.05;2.97;;;;;;;;;;4989484;28;20101;-61
2022/09/07 05:15:43;;;;;;;6.45;2.35;;;;;;;;;;4990217;28;20506;-62
2022/09/07 05:18:08;;;;;;;5.22;2.08;;;;;;;;;;4989917;28;20535;-61
2022/09/07 05:20:34;;;;;;;4.40;2.40;;;;;;;;;;4990475;28;20483;-61
2022/09/07 05:22:59;;;;;;;7.97;3.08;;;;;;;;;;4989117;28;20396;-61
2022/09/07 05:25:27;;;;;;;4.68;2.10;;;;;;;;;;4989163;28;20508;-61
2022/09/07 05:27:52;;;;;;;7.93;2.60;;;;;;;;;;4989769;28;20328;-61
2022/09/07 05:30:18;;;;;;;5.80;2.95;;;;;;;;;;4990321;28;20321;-62
2022/09/07 05:32:44;;;;;;;5.38;2.67;;;;;;;;;;4989023;28;20379;-61
2022/09/07 05:35:10;;;;;;;5.28;2.22;;;;;;;;;;4990087;28;20029;-61
2022/09/07 05:37:35;;;;;;;5.75;3.25;;;;;;;;;;4988808;28;20455;-62
2022/09/07 05:40:00;;;;;;;8.88;2.47;;;;;;;;;;4988927;28;20470;-62
2022/09/07 05:42:26;;;;;;;10.88;2.15;;;;;;;;;;4988849;28;20052;-61
2022/09/07 05:44:51;;;;;;;5.18;2.30;;;;;;;;;;4988738;28;20455;-62
2022/09/07 05:47:17;;;;;;;5.13;2.45;;;;;;;;;;4988879;28;20432;-61
2022/09/07 05:49:42;;;;;;;5.63;2.20;;;;;;;;;;4988630;28;20517;-61
2022/09/07 05:52:08;;;;;;;7.57;2.75;;;;;;;;;;4988204;28;20428;-62
2022/09/07 05:54:33;;;;;;;7.03;2.55;;;;;;;;;;4988704;28;20382;-62
2022/09/07 05:56:59;;;;;;;5.78;2.70;;;;;;;;;;4988159;28;20427;-62
2022/09/07 05:59:24;;;;;;;7.10;2.50;;;;;;;;;;4989430;28;20365;-62
2022/09/07 06:01:49;;;;;;;4.97;2.67;;;;;;;;;;4988705;28;20455;-62
2022/09/07 06:04:15;;;;;;;6.93;2.40;;;;;;;;;;4988789;28;20112;-62
2022/09/07 06:06:40;;;;;;;8.05;2.55;;;;;;;;;;4988414;28;20406;-62
2022/09/07 06:09:06;;;;;;;5.28;2.85;;;;;;;;;;4988447;28;20336;-62
2022/09/07 06:11:31;;;;;;;8.00;2.55;;;;;;;;;;4988218;28;20379;-61
2022/09/07 06:13:57;;;;;;;9.57;2.40;;;;;;;;;;4988164;28;20117;-62
2022/09/07 06:16:22;;;;;;;8.50;2.47;;;;;;;;;;4988233;28;20040;-62
2022/09/07 06:18:48;;;;;;;7.07;2.28;;;;;;;;;;4989280;28;20535;-62
2022/09/07 06:21:21;;;;;;;6.38;2.80;;;;;;;;;;4988154;28;20456;-62
2022/09/07 06:23:47;;;;;;;4.97;2.33;;;;;;;;;;4988098;28;20025;-62
2022/09/07 06:26:15;;;;;;;5.50;2.33;;;;;;;;;;4988253;28;20347;-62
2022/09/07 06:28:42;;;;;;;6.22;3.20;;;;;;;;;;4988344;28;20436;-62
2022/09/07 06:31:11;;;;;;;5.20;2.50;;;;;;;;;;4987931;28;20313;-62
2022/09/07 06:33:36;;;;;;;;;;;;;;;;;;4990790;28;20048;-62
2022/09/07 06:36:08;;;;;;;5.93;2.78;;;;;;;;;;4988473;28;20307;-62
2022/09/07 06:38:35;;;;;;;5.65;2.78;;;;;;;;;;4969900;28;20514;-62
2022/09/07 06:41:05;;;;;;;5.97;3.03;;;;;;;;;;4987943;28;20439;-62
2022/09/07 06:43:30;;;;;;;7.57;2.67;;;;;;;;;;4988462;28;20061;-62
2022/09/07 06:45:57;;;;;;;6.43;3.10;;;;;;;;;;4987961;28;20111;-63
2022/09/07 06:48:22;;;;;;;8.32;2.92;;;;;;;;;;4987797;28;20056;-62
2022/09/07 06:51:00;;;;;;;7.93;3.10;;;;;;;;;;4987798;28;20033;-62
2022/09/07 06:53:28;;;;;;;8.70;3.20;;;;;;;;;;4987581;28;20406;-63
2022/09/07 06:55:54;;;;;;;6.35;3.03;;;;;;;;;;4988432;28;20422;-62
2022/09/07 06:58:19;;;;;;;8.50;2.97;;;;;;;;;;4974612;28;20072;-62
2022/09/07 07:00:45;;;;;;;6.32;2.72;;;;;;;;;;4968991;28;20445;-62
2022/09/07 07:03:10;;;;;;;9.07;3.05;;;;;;;;;;4969056;28;20455;-62
2022/09/07 07:05:36;;;;;;;9.23;3.20;;;;;;;;;;4970367;28;20375;-62
2022/09/07 07:08:01;;;;;;;5.80;2.92;;;;;;;;;;4971802;28;20372;-62
2022/09/07 07:10:26;;;;;;;7.60;3.30;;;;;;;;;;4971974;28;20368;-63
2022/09/07 07:12:55;;;;;;;10.32;2.90;;;;;;;;;;4971821;28;20463;-62
2022/09/07 07:15:21;;;;;;;6.45;2.67;;;;;;;;;;4972583;28;20415;-62
2022/09/07 07:17:48;;;;;;;6.45;2.72;;;;;;;;;;4971841;28;20447;-62
2022/09/07 07:20:13;;;;;;;8.50;2.60;;;;;;;;;;4971674;28;20452;-62
2022/09/07 07:22:39;;;;;;;6.63;2.60;;;;;;;;;;4971936;28;20451;-62
2022/09/07 07:25:04;;;;;;;10.77;2.70;;;;;;;;;;4971859;28;20440;-62
2022/09/07 07:27:30;;;;;;;6.38;2.40;;;;;;;;;;4971776;28;20132;-62
2022/09/07 07:29:55;;;;;;;4.93;2.60;;;;;;;;;;4973507;28;20306;-62
2022/09/07 07:32:21;;;;;;;5.35;2.40;;;;;;;;;;4971521;28;20507;-62
2022/09/07 07:34:46;;;;;;;6.68;2.42;;;;;;;;;;4973010;28;20502;-62
2022/09/07 07:37:13;;;;;;;7.38;2.90;;;;;;;;;;4972850;28;20336;-62
2022/09/07 07:39:38;;;;;;;3.72;2.28;;;;;;;;;;4971385;28;20029;-62
2022/09/07 07:42:04;;;;;;;6.07;1.90;;;;;;;;;;4971633;28;20029;-62
2022/09/07 07:44:29;;;;;;;7.70;2.13;;;;;;;;;;4971678;28;20401;-62
2022/09/07 07:46:54;;;;;;;6.50;2.53;;;;;;;;;;4971287;28;20420;-62
2022/09/07 07:49:20;;;;;;;5.95;2.40;;;;;;;;;;4971465;28;20502;-62
2022/09/07 07:51:45;;;;;;;6.70;2.58;;;;;;;;;;4971228;28;20089;-62
2022/09/07 07:54:10;;;;;;;6.13;2.35;;;;;;;;;;4970921;28;20353;-62
2022/09/07 07:56:36;;;;;;;6.88;2.22;;;;;;;;;;4971008;28;20471;-62
2022/09/07 07:59:01;;;;;;;8.48;2.75;;;;;;;;;;4989281;28;20452;-62
2022/09/07 08:01:26;;;;;;;6.13;2.30;;;;;;;;;;4990864;28;20537;-62
2022/09/07 08:03:52;;;;;;;6.68;3.08;;;;;;;;;;4990622;28;20470;-62
2022/09/07 08:06:20;;;;;;;6.35;2.25;;;;;;;;;;4990591;28;20456;-62
2022/09/07 08:08:45;;;;;;;3.75;2.47;;;;;;;;;;4991489;28;20402;-62
2022/09/07 08:11:16;;;;;;;9.30;2.55;;;;;;;;;;4990366;28;20107;-63
2022/09/07 08:13:42;;;;;;;5.32;3.00;;;;;;;;;;4990332;28;20382;-62
2022/09/07 08:16:09;;;;;;;6.65;2.22;;;;;;;;;;4990515;28;20447;-62
2022/09/07 08:18:35;;;;;;;4.28;1.90;;;;;;;;;;4990559;28;20316;-62
2022/09/07 08:21:03;;;;;;;4.35;2.17;;;;;;;;;;4990461;28;20032;-63
2022/09/07 08:23:30;;;;;;;5.35;2.50;;;;;;;;;;4991306;28;20355;-63
2022/09/07 08:26:00;;;;;;;2.90;1.83;;;;;;;;;;4992185;28;20340;-62
2022/09/07 08:28:27;;;;;;;4.78;1.98;;;;;;;;;;4990321;28;20525;-62
2022/09/07 08:30:52;;;;;;;7.78;3.00;;;;;;;;;;4990017;28;20446;-63
2022/09/07 08:33:18;;;;;;;4.13;2.20;;;;;;;;;;4990216;28;20436;-62
2022/09/07 08:35:54;;;;;;;4.13;2.15;;;;;;;;;;4990253;28;20433;-63
2022/09/07 08:38:19;;;;;;;3.15;1.83;;;;;;;;;;4992371;28;20332;-62
2022/09/07 08:40:45;;;;;;;8.52;2.42;;;;;;;;;;4989838;28;20371;-63
2022/09/07 08:43:16;;;;;;;4.55;2.30;;;;;;;;;;4990219;28;20151;-63
2022/09/07 08:45:45;;;;;;;3.95;2.05;;;;;;;;;;4990815;28;20116;-62
2022/09/07 08:48:13;;;;;;;4.63;2.00;;;;;;;;;;4989971;28;20352;-62
2022/09/07 08:51:10;;;;;;;5.00;2.20;;;;;;;;;;4989809;28;20444;-62
2022/09/07 08:53:42;;;;;;;4.25;2.35;;;;;;;;;;4990041;28;20341;-63
2022/09/07 08:56:13;;;;;;;5.78;2.38;;;;;;;;;;4972197;28;20424;-62
2022/09/07 08:58:50;;;;;;;3.63;1.83;;;;;;;;;;4971537;28;20471;-62
2022/09/07 09:01:20;;;;;;;4.68;2.03;;;;;;;;;;4990089;28;20538;-63
2022/09/07 09:03:49;;;;;;;5.00;2.15;;;;;;;;;;4990468;28;20416;-62
2022/09/07 09:06:36;;;;;;;2.40;1.50;;;;;;;;;;4971409;28;20448;-62
2022/09/07 09:09:30;;;;;;;4.10;2.30;;;;;;;;;;4989889;28;20435;-62
2022/09/07 09:12:24;;;;;;;6.70;1.83;;;;;;;;;;4976076;28;20448;-62
2022/09/07 09:15:08;;;;;;;2.88;1.70;;;;;;;;;;4989777;28;20420;-63
2022/09/07 09:17:42;;;;;;;3.85;1.58;;;;;;;;;;4989427;28;20423;-62
2022/09/07 09:20:32;;;;;;;3.15;1.48;;;;;;;;;;4989204;28;20431;-63
2022/09/07 09:23:01;;;;;;;5.97;1.95;;;;;;;;;;4989176;28;20021;-62
2022/09/07 09:25:35;;;;;;;4.15;2.10;;;;;;;;;;4971241;28;20480;-62
2022/09/07 09:28:01;;;;;;;4.75;1.75;;;;;;;;;;4971006;28;20051;-63
2022/09/07 09:30:27;;;;;;;4.13;1.77;;;;;;;;;;4989792;28;20040;-62
2022/09/07 09:33:12;;;;;;;4.53;1.85;;;;;;;;;;4990771;28;20029;-63
2022/09/07 09:35:39;;;;;;;3.78;1.95;;;;;;;;;;4985626;28;20468;-63
2022/09/07 09:38:04;;;;;;;2.60;1.70;;;;;;;;;;4644700;28;10002404;-63
2022/09/07 09:40:34;;;;;;;5.22;2.03;;;;;;;;;;4970931;28;20344;-62
2022/09/07 09:43:04;;;;;;;5.38;2.05;;;;;;;;;;4988913;28;20518;-62
2022/09/07 09:45:43;;;;;;;3.55;1.63;;;;;;;;;;4970610;28;20432;-63
2022/09/07 09:48:10;;;;;;;3.60;1.85;;;;;;;;;;4988731;28;20116;-63
2022/09/07 09:50:39;;;;;;;3.67;1.67;;;;;;;;;;4970856;28;20468;-63
2022/09/07 09:53:05;;;;;;;;;;;;;;;;;;4989430;28;20399;-63
2022/09/07 09:55:33;;;;;;;5.88;2.28;;;;;;;;;;4989387;28;20290;-62
2022/09/07 09:58:00;;;;;;;3.28;1.88;;;;;;;;;;4979359;28;20356;-63
2022/09/07 10:00:27;;;;;;;5.18;1.70;;;;;;;;;;4951172;28;20350;-63
2022/09/07 10:03:11;;;;;;;4.20;1.77;;;;;;;;;;4969744;28;20049;-62
2022/09/07 10:05:38;;;;;;;3.67;1.90;;;;;;;;;;4969329;28;20037;-62
2022/09/07 10:08:16;;;;;;;3.25;1.48;;;;;;;;;;4951414;28;20421;-63
2022/09/07 10:10:56;;;;;;;4.40;1.80;;;;;;;;;;4969629;28;20443;-63
2022/09/07 10:13:25;;;;;;;4.85;2.00;;;;;;;;;;4968408;28;20087;-62
2022/09/07 10:15:52;;;;;;;4.80;2.03;;;;;;;;;;4950874;28;20519;-63
2022/09/07 10:18:24;;;;;;;3.78;1.90;;;;;;;;;;4951150;28;20052;-62
2022/09/07 10:20:49;;;;;;;2.85;1.63;;;;;;;;;;4950795;28;20360;-62
2022/09/07 10:23:22;;;;;;;4.63;2.20;;;;;;;;;;4969325;28;20068;-63
2022/09/07 10:25:47;;;;;;;5.80;2.13;;;;;;;;;;4950958;28;20053;-63
2022/09/07 10:28:16;;;;;;;4.32;1.67;;;;;;;;;;4968098;28;20524;-63
2022/09/07 10:31:08;;;;;;;2.67;1.58;;;;;;;;;;4968310;28;20059;-63
2022/09/07 10:33:40;;;;;;;4.45;1.45;;;;;;;;;;4950407;28;20490;-62
2022/09/07 10:36:09;;;;;;;3.70;1.85;;;;;;;;;;4969137;28;20084;-63
2022/09/07 10:38:40;;;;;;;3.55;1.65;;;;;;;;;;4970256;28;20484;-63
2022/09/07 10:41:08;;;;;;;3.13;1.98;;;;;;;;;;4950231;28;20344;-63
2022/09/07 10:43:45;;;;;;;3.63;1.80;;;;;;;;;;4969634;28;20336;-62
2022/09/07 10:46:16;;;;;;;4.20;2.00;;;;;;;;;;4950587;28;20440;-63
2022/09/07 10:48:59;;;;;;;4.75;1.85;;;;;;;;;;4968110;28;20112;-63
2022/09/07 10:51:32;;;;;;;2.47;1.60;;;;;;;;;;4968267;28;20433;-63
2022/09/07 10:54:22;;;;;;;2.65;1.55;;;;;;;;;;4968312;28;20392;-64
2022/09/07 10:56:56;;;;;;;3.22;1.60;;;;;;;;;;4968294;28;20432;-63
2022/09/07 10:59:43;;;;;;;4.18;1.75;;;;;;;;;;4968300;28;20463;-63
2022/09/07 11:02:53;;;;;;;6.35;1.92;;;;;;;;;;4968227;28;20490;-64
2022/09/07 11:05:18;;;;;;;3.50;1.48;;;;;;;;;;4870028;29;20444;-63
2022/09/07 11:07:58;;;;;;;5.05;1.65;;;;;;;;;;4947593;28;20348;-64
2022/09/07 11:10:54;;;;;;;3.13;1.58;;;;;;;;;;4968087;28;20383;-63
2022/09/07 11:13:23;;;;;;;6.15;1.83;;;;;;;;;;4968391;28;20029;-64
2022/09/07 11:15:55;;;;;;;6.20;2.20;;;;;;;;;;4967862;28;20425;-63
2022/09/07 11:18:34;;;;;;;4.53;2.08;;;;;;;;;;4968967;28;20536;-63
2022/09/07 11:21:02;;;;;;;3.65;1.48;;;;;;;;;;4966571;28;20451;-63
2022/09/07 11:23:46;;;;;;;8.27;2.38;;;;;;;;;;4968052;28;20322;-63
2022/09/07 11:26:18;;;;;;;2.67;1.42;;;;;;;;;;4966651;28;20356;-64
2022/09/07 11:28:47;;;;;;;3.17;1.58;;;;;;;;;;4968115;28;20440;-64
2022/09/07 11:31:18;;;;;;;4.63;1.80;;;;;;;;;;4966648;28;20340;-64
2022/09/07 11:33:49;;;;;;;2.83;1.45;;;;;;;;;;4967960;28;20052;-64
2022/09/07 11:36:17;;;;;;;3.88;1.80;;;;;;;;;;4968344;28;20041;-65
2022/09/07 11:38:53;;;;;;;4.78;2.38;;;;;;;;;;4966650;28;20428;-64
2022/09/07 11:41:27;;;;;;;2.80;1.55;;;;;;;;;;4967760;28;20465;-63
2022/09/07 11:44:17;;;;;;;4.72;2.35;;;;;;;;;;4950451;28;20448;-63
2022/09/07 11:47:12;;;;;;;3.83;1.90;;;;;;;;;;4940277;28;20356;-63
2022/09/07 11:49:37;;;;;;;6.60;1.65;;;;;;;;;;4930018;28;20370;-63
2022/09/07 11:52:29;;;;;;;3.55;1.30;;;;;;;;;;4971673;28;20092;-64
2022/09/07 11:54:58;;;;;;;2.30;1.60;;;;;;;;;;4971118;28;20026;-64
2022/09/07 11:57:26;;;;;;;3.30;1.70;;;;;;;;;;4971753;28;20368;-63
2022/09/07 12:00:16;;;;;;;2.47;1.65;;;;;;;;;;4971245;28;20531;-64
2022/09/07 12:02:51;;;;;;;2.88;1.63;;;;;;;;;;4953256;28;20033;-63
2022/09/07 12:05:40;;;;;;;2.25;1.40;;;;;;;;;;4970953;28;20325;-67
2022/09/07 12:08:08;;;;;;;2.80;1.38;;;;;;;;;;4953190;28;20437;-64
2022/09/07 12:11:14;;;;;;;3.25;1.58;;;;;;;;;;4953178;28;20345;-63
2022/09/07 12:13:52;;;;;;;3.15;1.55;;;;;;;;;;4952751;28;20060;-64
2022/09/07 12:16:35;;;;;;;4.55;2.05;;;;;;;;;;4970688;28;20516;-65
2022/09/07 12:19:16;;;;;;;2.35;1.60;;;;;;;;;;4970792;28;20429;-63
2022/09/07 12:21:42;;;;;;;2.65;1.60;;;;;;;;;;4973327;28;20459;-64
2022/09/07 12:24:47;;;;;;;6.60;1.90;;;;;;;;;;4953034;28;20380;-63
2022/09/07 12:27:18;;;;;;;5.82;1.60;;;;;;;;;;4971525;28;20371;-63
2022/09/07 12:29:43;;;;;;;3.45;1.48;;;;;;;;;;4970504;28;20510;-63
2022/09/07 12:32:09;;;;;;;3.85;1.70;;;;;;;;;;4970553;28;20336;-63
2022/09/07 12:34:34;;;;;;;4.28;1.95;;;;;;;;;;4970280;28;20457;-64
2022/09/07 12:37:00;;;;;;;2.45;1.60;;;;;;;;;;4970562;28;20341;-63
2022/09/07 12:39:29;;;;;;;4.38;1.80;;;;;;;;;;4970237;28;20060;-63
2022/09/07 12:42:09;;;;;;;4.78;2.00;;;;;;;;;;4971632;28;20085;-64
2022/09/07 12:44:35;;;;;;;2.67;1.40;;;;;;;;;;4970242;28;20392;-64
2022/09/07 12:47:18;;;;;;;4.82;1.60;;;;;;;;;;4952527;28;20025;-63
2022/09/07 12:49:56;;;;;;;3.15;1.77;;;;;;;;;;4952206;28;20056;-63
2022/09/07 12:52:37;;;;;;;2.75;1.52;;;;;;;;;;4971030;28;20405;-64
2022/09/07 12:55:24;;;;;;;3.30;1.70;;;;;;;;;;4970064;28;20440;-63
2022/09/07 12:58:12;;;;;;;3.00;1.73;;;;;;;;;;4956429;28;20053;-63
2022/09/07 13:00:47;;;;;;;2.75;1.45;;;;;;;;;;4961780;28;20045;-64
2022/09/07 13:03:27;;;;;;;6.18;1.70;;;;;;;;;;4968960;28;20041;-63
2022/09/07 13:06:10;;;;;;;2.47;1.65;;;;;;;;;;4952364;28;20544;-63
2022/09/07 13:08:52;;;;;;;5.57;2.47;;;;;;;;;;4970149;28;20343;-63
2022/09/07 13:11:25;;;;;;;3.08;1.52;;;;;;;;;;4969636;28;20029;-63
2022/09/07 13:13:59;;;;;;;3.22;1.70;;;;;;;;;;4969444;28;20441;-64
2022/09/07 13:16:50;;;;;;;2.83;1.70;;;;;;;;;;4969484;28;20472;-64
2022/09/07 13:19:44;;;;;;;3.05;1.70;;;;;;;;;;4965958;28;20128;-63
2022/09/07 13:22:31;;;;;;;4.72;2.35;;;;;;;;;;4969505;28;20448;-64
2022/09/07 13:25:02;;;;;;;3.15;1.90;;;;;;;;;;4969384;28;20467;-64
2022/09/07 13:27:52;;;;;;;2.72;1.48;;;;;;;;;;4970080;28;20421;-63
2022/09/07 13:30:27;;;;;;;2.97;1.65;;;;;;;;;;4969480;28;20476;-63
2022/09/07 13:33:28;;;;;;;3.05;1.85;;;;;;;;;;4969259;28;20345;-63
2022/09/07 13:35:56;;;;;;;2.58;1.60;;;;;;;;;;4969323;28;20361;-64
2022/09/07 13:38:21;;;;;;;3.22;1.70;;;;;;;;;;4969336;28;20171;-64
2022/09/07 13:40:48;;;;;;;4.53;1.92;;;;;;;;;;4951283;28;20052;-63
2022/09/07 13:43:18;;;;;;;4.00;1.45;;;;;;;;;;4951641;28;20448;-63
2022/09/07 13:46:21;;;;;;;3.42;1.90;;;;;;;;;;4969682;28;20400;-63
2022/09/07 13:48:53;;;;;;;4.28;1.92;;;;;;;;;;4951119;28;20453;-63
2022/09/07 13:51:51;;;;;;;2.88;1.77;;;;;;;;;;4952330;28;20127;-63
2022/09/07 13:54:41;;;;;;;4.82;1.67;;;;;;;;;;4968759;28;20033;-63
2022/09/07 13:57:16;;;;;;;2.42;1.40;;;;;;;;;;4950587;28;20444;-63
2022/09/07 13:59:41;;;;;;;2.92;1.90;;;;;;;;;;4968991;28;20034;-63
2022/09/07 14:02:23;;;;;;;3.67;1.83;;;;;;;;;;4969192;28;20455;-63
2022/09/07 14:04:50;;;;;;;3.72;1.92;;;;;;;;;;4951183;28;20340;-63
2022/09/07 14:07:19;;;;;;;3.40;1.73;;;;;;;;;;4950771;28;20507;-63
2022/09/07 14:09:44;;;;;;;;;;;;;;;;;;4969392;28;20444;-63
2022/09/07 14:12:14;;;;;;;3.45;2.22;;;;;;;;;;4970085;28;20308;-63
2022/09/07 14:14:40;;;;;;;3.78;1.77;;;;;;;;;;4968279;28;20038;-64
2022/09/07 14:17:10;;;;;;;5.70;2.17;;;;;;;;;;4968628;28;20460;-63
2022/09/07 14:19:41;;;;;;;3.28;1.80;;;;;;;;;;4950676;28;20119;-63
2022/09/07 14:22:23;;;;;;;2.90;1.55;;;;;;;;;;4950828;28;20537;-63
2022/09/07 14:24:56;;;;;;;5.00;2.15;;;;;;;;;;4950719;28;20345;-63
2022/09/07 14:27:31;;;;;;;3.75;2.20;;;;;;;;;;4950822;28;20025;-63
2022/09/07 14:30:28;;;;;;;3.55;1.88;;;;;;;;;;4968238;28;20384;-64
2022/09/07 14:32:59;;;;;;;4.22;1.90;;;;;;;;;;4968430;28;20467;-63
2022/09/07 14:35:27;;;;;;;2.97;1.70;;;;;;;;;;4968572;28;20437;-63
2022/09/07 14:37:54;;;;;;;3.95;1.75;;;;;;;;;;4951065;28;20476;-63
2022/09/07 14:40:22;;;;;;;4.03;1.80;;;;;;;;;;4950610;28;20445;-62
2022/09/07 14:42:49;;;;;;;3.30;1.50;;;;;;;;;;4969113;28;20353;-63
2022/09/07 14:45:16;;;;;;;3.00;1.83;;;;;;;;;;4968319;28;20391;-63
2022/09/07 14:47:42;;;;;;;2.97;1.60;;;;;;;;;;4968237;28;20503;-63
2022/09/07 14:50:37;;;;;;;5.85;2.10;;;;;;;;;;4968201;28;20419;-63
2022/09/07 14:53:03;;;;;;;4.10;2.25;;;;;;;;;;4966189;28;20468;-63
2022/09/07 14:55:44;;;;;;;4.47;1.67;;;;;;;;;;4951292;28;20432;-63
2022/09/07 14:58:12;;;;;;;5.13;2.15;;;;;;;;;;4967947;28;20483;-63
2022/09/07 15:00:42;;;;;;;2.65;1.90;;;;;;;;;;4968322;28;20460;-63
2022/09/07 15:03:27;;;;;;;6.30;2.25;;;;;;;;;;4968380;28;20467;-62
2022/09/07 15:05:53;;;;;;;4.63;2.15;;;;;;;;;;4968583;28;20437;-63
2022/09/07 15:08:34;;;;;;;3.40;2.10;;;;;;;;;;4950349;28;20472;-63